sensor_id;sensor_type;location;lat;lon;timestamp;P1;durP1;ratioP1;P2;durP2;ratioP2
74900;SDS011;63461;51.416;6.758;2023-08-17T00:01:27;5.80;;;3.25;;
74900;SDS011;63461;51.416;6.758;2023-08-17T00:03:53;7.63;;;3.83;;
74900;SDS011;63461;51.416;6.758;2023-08-17T00:06:18;7.68;;;3.45;;
74900;SDS011;63461;51.416;6.758;2023-08-17T00:08:44;11.77;;;3.70;;
74900;SDS011;63461;51.416;6.758;2023-08-17T00:11:10;6.13;;;3.65;;
74900;SDS011;63461;51.416;6.758;2023-08-17T00:13:36;7.70;;;3.90;;
74900;SDS011;63461;51.416;6.758;2023-08-17T00:16:02;10.00;;;3.63;;
74900;SDS011;63461;51.416;6.758;2023-08-17T00:18:27;8.45;;;3.60;;
74900;SDS011;63461;51.416;6.758;2023-08-17T00:20:53;8.80;;;3.78;;
74900;SDS011;63461;51.416;6.758;2023-08-17T00:23:19;10.25;;;3.83;;
74900;SDS011;63461;51.416;6.758;2023-08-17T00:25:47;6.25;;;3.47;;
74900;SDS011;63461;51.416;6.758;2023-08-17T00:28:14;6.25;;;3.78;;
74900;SDS011;63461;51.416;6.758;2023-08-17T00:30:39;8.98;;;3.55;;
74900;SDS011;63461;51.416;6.758;2023-08-17T00:33:05;6.43;;;3.35;;
74900;SDS011;63461;51.416;6.758;2023-08-17T00:35:31;10.00;;;3.75;;
74900;SDS011;63461;51.416;6.758;2023-08-17T00:37:58;8.50;;;3.67;;
74900;SDS011;63461;51.416;6.758;2023-08-17T00:40:25;6.15;;;3.80;;
74900;SDS011;63461;51.416;6.758;2023-08-17T00:42:50;5.30;;;3.33;;
74900;SDS011;63461;51.416;6.758;2023-08-17T00:45:17;8.52;;;4.30;;
74900;SDS011;63461;51.416;6.758;2023-08-17T00:47:44;9.80;;;3.53;;
74900;SDS011;63461;51.416;6.758;2023-08-17T00:50:11;9.68;;;3.35;;
74900;SDS011;63461;51.416;6.758;2023-08-17T00:52:38;8.45;;;3.40;;
74900;SDS011;63461;51.416;6.758;2023-08-17T00:55:05;7.22;;;3.33;;
74900;SDS011;63461;51.416;6.758;2023-08-17T00:57:31;10.30;;;3.88;;
74900;SDS011;63461;51.416;6.758;2023-08-17T00:59:58;6.95;;;3.47;;
74900;SDS011;63461;51.416;6.758;2023-08-17T01:02:25;9.57;;;3.55;;
74900;SDS011;63461;51.416;6.758;2023-08-17T01:04:51;8.80;;;3.63;;
74900;SDS011;63461;51.416;6.758;2023-08-17T01:07:18;9.13;;;3.60;;
74900;SDS011;63461;51.416;6.758;2023-08-17T01:09:44;7.75;;;3.20;;
74900;SDS011;63461;51.416;6.758;2023-08-17T01:14:59;7.25;;;3.15;;
74900;SDS011;63461;51.416;6.758;2023-08-17T01:17:38;8.75;;;3.30;;
74900;SDS011;63461;51.416;6.758;2023-08-17T01:20:09;8.68;;;3.17;;
74900;SDS011;63461;51.416;6.758;2023-08-17T01:22:38;8.25;;;3.47;;
74900;SDS011;63461;51.416;6.758;2023-08-17T01:25:07;9.52;;;3.58;;
74900;SDS011;63461;51.416;6.758;2023-08-17T01:27:41;5.47;;;3.00;;
74900;SDS011;63461;51.416;6.758;2023-08-17T01:30:09;7.88;;;3.33;;
74900;SDS011;63461;51.416;6.758;2023-08-17T01:32:44;6.90;;;3.13;;
74900;SDS011;63461;51.416;6.758;2023-08-17T01:35:19;5.50;;;3.30;;
74900;SDS011;63461;51.416;6.758;2023-08-17T01:37:58;6.63;;;3.63;;
74900;SDS011;63461;51.416;6.758;2023-08-17T01:40:28;6.07;;;3.33;;
74900;SDS011;63461;51.416;6.758;2023-08-17T01:42:57;10.10;;;3.83;;
74900;SDS011;63461;51.416;6.758;2023-08-17T01:45:24;9.00;;;4.03;;
74900;SDS011;63461;51.416;6.758;2023-08-17T01:47:50;9.45;;;4.05;;
74900;SDS011;63461;51.416;6.758;2023-08-17T01:50:16;6.93;;;3.47;;
74900;SDS011;63461;51.416;6.758;2023-08-17T01:52:42;8.88;;;3.53;;
74900;SDS011;63461;51.416;6.758;2023-08-17T01:55:08;8.65;;;3.40;;
74900;SDS011;63461;51.416;6.758;2023-08-17T01:57:35;10.80;;;3.33;;
74900;SDS011;63461;51.416;6.758;2023-08-17T02:00:03;8.32;;;3.30;;
74900;SDS011;63461;51.416;6.758;2023-08-17T02:02:39;10.35;;;3.45;;
74900;SDS011;63461;51.416;6.758;2023-08-17T02:05:05;6.53;;;3.08;;
74900;SDS011;63461;51.416;6.758;2023-08-17T02:07:32;7.72;;;3.10;;
74900;SDS011;63461;51.416;6.758;2023-08-17T02:09:58;10.10;;;3.30;;
74900;SDS011;63461;51.416;6.758;2023-08-17T02:12:25;6.30;;;2.90;;
74900;SDS011;63461;51.416;6.758;2023-08-17T02:14:51;6.65;;;3.17;;
74900;SDS011;63461;51.416;6.758;2023-08-17T02:17:16;4.90;;;3.15;;
74900;SDS011;63461;51.416;6.758;2023-08-17T02:19:44;8.20;;;3.53;;
74900;SDS011;63461;51.416;6.758;2023-08-17T02:22:10;7.63;;;3.30;;
74900;SDS011;63461;51.416;6.758;2023-08-17T02:24:36;9.15;;;3.30;;
74900;SDS011;63461;51.416;6.758;2023-08-17T02:27:02;6.30;;;4.13;;
74900;SDS011;63461;51.416;6.758;2023-08-17T02:29:28;8.07;;;3.63;;
74900;SDS011;63461;51.416;6.758;2023-08-17T02:31:54;8.50;;;3.42;;
74900;SDS011;63461;51.416;6.758;2023-08-17T02:34:19;7.45;;;3.47;;
74900;SDS011;63461;51.416;6.758;2023-08-17T02:36:45;9.20;;;3.88;;
74900;SDS011;63461;51.416;6.758;2023-08-17T02:39:11;10.10;;;3.63;;
74900;SDS011;63461;51.416;6.758;2023-08-17T02:41:37;9.77;;;4.25;;
74900;SDS011;63461;51.416;6.758;2023-08-17T02:44:02;9.93;;;4.72;;
74900;SDS011;63461;51.416;6.758;2023-08-17T02:46:28;8.43;;;4.20;;
74900;SDS011;63461;51.416;6.758;2023-08-17T02:48:54;12.18;;;4.43;;
74900;SDS011;63461;51.416;6.758;2023-08-17T02:51:20;10.77;;;5.03;;
74900;SDS011;63461;51.416;6.758;2023-08-17T02:53:46;11.40;;;4.45;;
74900;SDS011;63461;51.416;6.758;2023-08-17T02:56:11;9.70;;;4.22;;
74900;SDS011;63461;51.416;6.758;2023-08-17T02:58:38;9.32;;;4.90;;
74900;SDS011;63461;51.416;6.758;2023-08-17T03:01:06;9.00;;;4.70;;
74900;SDS011;63461;51.416;6.758;2023-08-17T03:03:32;13.70;;;5.40;;
74900;SDS011;63461;51.416;6.758;2023-08-17T03:05:58;8.18;;;4.47;;
74900;SDS011;63461;51.416;6.758;2023-08-17T03:08:24;9.43;;;4.78;;
74900;SDS011;63461;51.416;6.758;2023-08-17T03:10:51;7.90;;;4.85;;
74900;SDS011;63461;51.416;6.758;2023-08-17T03:13:17;9.18;;;4.30;;
74900;SDS011;63461;51.416;6.758;2023-08-17T03:15:43;14.05;;;4.65;;
74900;SDS011;63461;51.416;6.758;2023-08-17T03:18:08;10.27;;;4.07;;
74900;SDS011;63461;51.416;6.758;2023-08-17T03:20:36;9.20;;;4.88;;
74900;SDS011;63461;51.416;6.758;2023-08-17T03:23:02;13.13;;;4.85;;
74900;SDS011;63461;51.416;6.758;2023-08-17T03:25:31;9.85;;;4.60;;
74900;SDS011;63461;51.416;6.758;2023-08-17T03:27:58;11.43;;;5.20;;
74900;SDS011;63461;51.416;6.758;2023-08-17T03:30:24;9.45;;;4.05;;
74900;SDS011;63461;51.416;6.758;2023-08-17T03:32:50;12.77;;;4.78;;
74900;SDS011;63461;51.416;6.758;2023-08-17T03:35:16;11.10;;;4.75;;
74900;SDS011;63461;51.416;6.758;2023-08-17T03:37:42;7.72;;;4.32;;
74900;SDS011;63461;51.416;6.758;2023-08-17T03:40:09;12.52;;;4.35;;
74900;SDS011;63461;51.416;6.758;2023-08-17T03:42:35;8.95;;;4.22;;
74900;SDS011;63461;51.416;6.758;2023-08-17T03:45:01;10.77;;;4.10;;
74900;SDS011;63461;51.416;6.758;2023-08-17T03:47:28;8.55;;;4.68;;
74900;SDS011;63461;51.416;6.758;2023-08-17T03:49:54;10.95;;;4.43;;
74900;SDS011;63461;51.416;6.758;2023-08-17T03:52:20;9.75;;;3.83;;
74900;SDS011;63461;51.416;6.758;2023-08-17T03:54:47;8.30;;;3.90;;
74900;SDS011;63461;51.416;6.758;2023-08-17T03:57:12;7.00;;;3.95;;
74900;SDS011;63461;51.416;6.758;2023-08-17T03:59:38;9.75;;;4.40;;
74900;SDS011;63461;51.416;6.758;2023-08-17T04:02:04;10.40;;;4.20;;
74900;SDS011;63461;51.416;6.758;2023-08-17T04:04:30;10.82;;;4.10;;
74900;SDS011;63461;51.416;6.758;2023-08-17T04:06:56;13.05;;;4.50;;
74900;SDS011;63461;51.416;6.758;2023-08-17T04:09:22;11.32;;;4.82;;
74900;SDS011;63461;51.416;6.758;2023-08-17T04:11:48;7.63;;;3.88;;
74900;SDS011;63461;51.416;6.758;2023-08-17T04:14:14;10.60;;;3.80;;
74900;SDS011;63461;51.416;6.758;2023-08-17T04:16:41;7.65;;;3.50;;
74900;SDS011;63461;51.416;6.758;2023-08-17T04:19:07;11.95;;;3.72;;
74900;SDS011;63461;51.416;6.758;2023-08-17T04:21:34;5.80;;;3.05;;
74900;SDS011;63461;51.416;6.758;2023-08-17T04:23:59;12.55;;;3.28;;
74900;SDS011;63461;51.416;6.758;2023-08-17T04:26:25;8.50;;;3.78;;
74900;SDS011;63461;51.416;6.758;2023-08-17T04:28:51;10.45;;;3.50;;
74900;SDS011;63461;51.416;6.758;2023-08-17T04:31:17;6.22;;;3.53;;
74900;SDS011;63461;51.416;6.758;2023-08-17T04:33:44;12.75;;;3.60;;
74900;SDS011;63461;51.416;6.758;2023-08-17T04:36:10;13.18;;;3.67;;
74900;SDS011;63461;51.416;6.758;2023-08-17T04:38:36;8.15;;;3.55;;
74900;SDS011;63461;51.416;6.758;2023-08-17T04:41:02;9.55;;;3.53;;
74900;SDS011;63461;51.416;6.758;2023-08-17T04:43:28;9.77;;;4.13;;
74900;SDS011;63461;51.416;6.758;2023-08-17T04:45:55;8.60;;;3.45;;
74900;SDS011;63461;51.416;6.758;2023-08-17T04:48:23;7.72;;;3.70;;
74900;SDS011;63461;51.416;6.758;2023-08-17T04:50:49;7.75;;;3.25;;
74900;SDS011;63461;51.416;6.758;2023-08-17T04:53:16;10.05;;;3.90;;
74900;SDS011;63461;51.416;6.758;2023-08-17T04:55:42;9.27;;;4.18;;
74900;SDS011;63461;51.416;6.758;2023-08-17T04:58:07;11.93;;;3.97;;
74900;SDS011;63461;51.416;6.758;2023-08-17T05:00:33;11.98;;;3.92;;
74900;SDS011;63461;51.416;6.758;2023-08-17T05:02:59;9.20;;;4.10;;
74900;SDS011;63461;51.416;6.758;2023-08-17T05:05:30;8.27;;;3.78;;
74900;SDS011;63461;51.416;6.758;2023-08-17T05:07:58;8.60;;;3.65;;
74900;SDS011;63461;51.416;6.758;2023-08-17T05:10:25;11.13;;;3.90;;
74900;SDS011;63461;51.416;6.758;2023-08-17T05:12:51;9.40;;;4.20;;
74900;SDS011;63461;51.416;6.758;2023-08-17T05:15:18;9.40;;;3.83;;
74900;SDS011;63461;51.416;6.758;2023-08-17T05:17:44;9.68;;;3.75;;
74900;SDS011;63461;51.416;6.758;2023-08-17T05:20:11;9.85;;;4.38;;
74900;SDS011;63461;51.416;6.758;2023-08-17T05:22:39;8.18;;;3.40;;
74900;SDS011;63461;51.416;6.758;2023-08-17T05:25:05;11.05;;;3.90;;
74900;SDS011;63461;51.416;6.758;2023-08-17T05:27:33;8.63;;;3.55;;
74900;SDS011;63461;51.416;6.758;2023-08-17T05:29:59;10.73;;;4.00;;
74900;SDS011;63461;51.416;6.758;2023-08-17T05:32:26;9.88;;;4.05;;
74900;SDS011;63461;51.416;6.758;2023-08-17T05:34:53;8.43;;;3.75;;
74900;SDS011;63461;51.416;6.758;2023-08-17T05:37:19;8.40;;;3.53;;
74900;SDS011;63461;51.416;6.758;2023-08-17T05:39:45;8.23;;;3.70;;
74900;SDS011;63461;51.416;6.758;2023-08-17T05:42:11;8.93;;;4.18;;
74900;SDS011;63461;51.416;6.758;2023-08-17T05:44:36;8.57;;;3.70;;
74900;SDS011;63461;51.416;6.758;2023-08-17T05:47:02;8.25;;;4.10;;
74900;SDS011;63461;51.416;6.758;2023-08-17T05:49:28;9.32;;;4.32;;
74900;SDS011;63461;51.416;6.758;2023-08-17T05:51:54;12.43;;;4.70;;
74900;SDS011;63461;51.416;6.758;2023-08-17T05:54:20;9.35;;;4.78;;
74900;SDS011;63461;51.416;6.758;2023-08-17T05:56:45;9.48;;;4.55;;
74900;SDS011;63461;51.416;6.758;2023-08-17T05:59:12;13.93;;;4.38;;
74900;SDS011;63461;51.416;6.758;2023-08-17T06:01:39;11.98;;;5.30;;
74900;SDS011;63461;51.416;6.758;2023-08-17T06:04:05;14.02;;;5.95;;
74900;SDS011;63461;51.416;6.758;2023-08-17T06:06:31;10.98;;;5.47;;
74900;SDS011;63461;51.416;6.758;2023-08-17T06:08:58;13.90;;;6.22;;
74900;SDS011;63461;51.416;6.758;2023-08-17T06:11:23;10.98;;;5.63;;
74900;SDS011;63461;51.416;6.758;2023-08-17T06:13:50;14.25;;;6.72;;
74900;SDS011;63461;51.416;6.758;2023-08-17T06:16:15;14.80;;;6.72;;
74900;SDS011;63461;51.416;6.758;2023-08-17T06:18:41;15.88;;;7.00;;
74900;SDS011;63461;51.416;6.758;2023-08-17T06:21:07;22.35;;;7.85;;
74900;SDS011;63461;51.416;6.758;2023-08-17T06:23:33;13.20;;;7.18;;
74900;SDS011;63461;51.416;6.758;2023-08-17T06:25:59;13.82;;;6.82;;
74900;SDS011;63461;51.416;6.758;2023-08-17T06:28:26;12.07;;;6.25;;
74900;SDS011;63461;51.416;6.758;2023-08-17T06:30:52;16.17;;;7.03;;
74900;SDS011;63461;51.416;6.758;2023-08-17T06:33:19;10.55;;;6.15;;
74900;SDS011;63461;51.416;6.758;2023-08-17T06:35:45;13.07;;;6.75;;
74900;SDS011;63461;51.416;6.758;2023-08-17T06:38:11;16.02;;;6.88;;
74900;SDS011;63461;51.416;6.758;2023-08-17T06:40:37;11.90;;;7.03;;
74900;SDS011;63461;51.416;6.758;2023-08-17T06:43:03;19.67;;;9.25;;
74900;SDS011;63461;51.416;6.758;2023-08-17T06:45:31;16.00;;;9.10;;
74900;SDS011;63461;51.416;6.758;2023-08-17T06:47:57;23.10;;;10.70;;
74900;SDS011;63461;51.416;6.758;2023-08-17T06:50:23;19.25;;;10.32;;
74900;SDS011;63461;51.416;6.758;2023-08-17T06:52:48;17.58;;;10.00;;
74900;SDS011;63461;51.416;6.758;2023-08-17T06:55:14;20.30;;;9.57;;
74900;SDS011;63461;51.416;6.758;2023-08-17T06:57:41;19.45;;;8.85;;
74900;SDS011;63461;51.416;6.758;2023-08-17T07:00:07;18.30;;;9.63;;
74900;SDS011;63461;51.416;6.758;2023-08-17T07:02:33;19.80;;;10.02;;
74900;SDS011;63461;51.416;6.758;2023-08-17T07:04:59;19.00;;;10.15;;
74900;SDS011;63461;51.416;6.758;2023-08-17T07:07:25;21.77;;;11.10;;
74900;SDS011;63461;51.416;6.758;2023-08-17T07:09:51;21.55;;;11.30;;
74900;SDS011;63461;51.416;6.758;2023-08-17T07:12:17;19.98;;;12.05;;
74900;SDS011;63461;51.416;6.758;2023-08-17T07:14:44;28.25;;;11.68;;
74900;SDS011;63461;51.416;6.758;2023-08-17T07:17:10;24.88;;;11.20;;
74900;SDS011;63461;51.416;6.758;2023-08-17T07:19:36;22.27;;;11.10;;
74900;SDS011;63461;51.416;6.758;2023-08-17T07:22:05;20.15;;;11.20;;
74900;SDS011;63461;51.416;6.758;2023-08-17T07:24:31;19.35;;;11.20;;
74900;SDS011;63461;51.416;6.758;2023-08-17T07:26:56;22.48;;;10.75;;
74900;SDS011;63461;51.416;6.758;2023-08-17T07:29:22;22.67;;;11.05;;
74900;SDS011;63461;51.416;6.758;2023-08-17T07:31:48;18.90;;;10.40;;
74900;SDS011;63461;51.416;6.758;2023-08-17T07:34:14;20.50;;;11.30;;
74900;SDS011;63461;51.416;6.758;2023-08-17T07:36:40;21.23;;;11.27;;
74900;SDS011;63461;51.416;6.758;2023-08-17T07:39:06;25.83;;;12.50;;
74900;SDS011;63461;51.416;6.758;2023-08-17T07:41:32;24.20;;;11.60;;
74900;SDS011;63461;51.416;6.758;2023-08-17T07:43:58;23.40;;;11.70;;
74900;SDS011;63461;51.416;6.758;2023-08-17T07:46:24;23.50;;;11.60;;
74900;SDS011;63461;51.416;6.758;2023-08-17T07:48:49;27.20;;;12.82;;
74900;SDS011;63461;51.416;6.758;2023-08-17T07:51:15;23.85;;;12.30;;
74900;SDS011;63461;51.416;6.758;2023-08-17T07:53:41;27.65;;;12.35;;
74900;SDS011;63461;51.416;6.758;2023-08-17T07:56:07;26.80;;;13.60;;
74900;SDS011;63461;51.416;6.758;2023-08-17T07:58:33;29.67;;;13.48;;
74900;SDS011;63461;51.416;6.758;2023-08-17T08:00:58;23.40;;;12.70;;
74900;SDS011;63461;51.416;6.758;2023-08-17T08:03:24;26.00;;;13.00;;
74900;SDS011;63461;51.416;6.758;2023-08-17T08:05:50;23.58;;;12.35;;
74900;SDS011;63461;51.416;6.758;2023-08-17T08:08:17;26.45;;;12.52;;
74900;SDS011;63461;51.416;6.758;2023-08-17T08:10:42;31.60;;;12.55;;
74900;SDS011;63461;51.416;6.758;2023-08-17T08:13:11;27.92;;;13.35;;
74900;SDS011;63461;51.416;6.758;2023-08-17T08:15:37;26.30;;;13.65;;
74900;SDS011;63461;51.416;6.758;2023-08-17T08:18:03;23.77;;;13.50;;
74900;SDS011;63461;51.416;6.758;2023-08-17T08:20:29;30.85;;;13.68;;
74900;SDS011;63461;51.416;6.758;2023-08-17T08:22:55;26.25;;;13.40;;
74900;SDS011;63461;51.416;6.758;2023-08-17T08:25:21;22.63;;;12.80;;
74900;SDS011;63461;51.416;6.758;2023-08-17T08:27:46;23.60;;;12.82;;
74900;SDS011;63461;51.416;6.758;2023-08-17T08:30:12;26.73;;;12.57;;
74900;SDS011;63461;51.416;6.758;2023-08-17T08:32:38;20.98;;;11.90;;
74900;SDS011;63461;51.416;6.758;2023-08-17T08:35:04;22.92;;;12.18;;
74900;SDS011;63461;51.416;6.758;2023-08-17T08:37:30;26.17;;;11.73;;
74900;SDS011;63461;51.416;6.758;2023-08-17T08:39:56;25.15;;;11.80;;
74900;SDS011;63461;51.416;6.758;2023-08-17T08:42:22;23.80;;;12.30;;
74900;SDS011;63461;51.416;6.758;2023-08-17T08:44:49;21.48;;;13.05;;
74900;SDS011;63461;51.416;6.758;2023-08-17T08:47:16;27.55;;;13.35;;
74900;SDS011;63461;51.416;6.758;2023-08-17T08:49:50;23.50;;;12.50;;
74900;SDS011;63461;51.416;6.758;2023-08-17T08:52:36;21.85;;;11.55;;
74900;SDS011;63461;51.416;6.758;2023-08-17T08:55:11;20.02;;;11.73;;
74900;SDS011;63461;51.416;6.758;2023-08-17T08:57:41;31.75;;;15.50;;
74900;SDS011;63461;51.416;6.758;2023-08-17T09:00:08;29.85;;;15.23;;
74900;SDS011;63461;51.416;6.758;2023-08-17T09:02:35;27.52;;;16.30;;
74900;SDS011;63461;51.416;6.758;2023-08-17T09:05:02;34.67;;;20.52;;
74900;SDS011;63461;51.416;6.758;2023-08-17T09:07:29;34.80;;;21.20;;
74900;SDS011;63461;51.416;6.758;2023-08-17T09:09:55;41.15;;;22.02;;
74900;SDS011;63461;51.416;6.758;2023-08-17T09:12:21;39.42;;;20.58;;
74900;SDS011;63461;51.416;6.758;2023-08-17T09:14:47;36.65;;;20.80;;
74900;SDS011;63461;51.416;6.758;2023-08-17T09:17:13;33.72;;;20.63;;
74900;SDS011;63461;51.416;6.758;2023-08-17T09:19:39;37.97;;;19.80;;
74900;SDS011;63461;51.416;6.758;2023-08-17T09:22:05;32.55;;;18.40;;
74900;SDS011;63461;51.416;6.758;2023-08-17T09:24:37;32.60;;;18.48;;
74900;SDS011;63461;51.416;6.758;2023-08-17T09:27:03;33.28;;;20.67;;
74900;SDS011;63461;51.416;6.758;2023-08-17T09:29:29;31.80;;;20.25;;
74900;SDS011;63461;51.416;6.758;2023-08-17T09:32:05;36.28;;;19.77;;
74900;SDS011;63461;51.416;6.758;2023-08-17T09:34:32;35.67;;;20.58;;
74900;SDS011;63461;51.416;6.758;2023-08-17T09:37:04;38.00;;;20.55;;
74900;SDS011;63461;51.416;6.758;2023-08-17T09:39:31;35.35;;;19.77;;
74900;SDS011;63461;51.416;6.758;2023-08-17T09:41:57;36.05;;;20.75;;
74900;SDS011;63461;51.416;6.758;2023-08-17T09:44:24;39.33;;;21.48;;
74900;SDS011;63461;51.416;6.758;2023-08-17T09:46:50;29.27;;;19.13;;
74900;SDS011;63461;51.416;6.758;2023-08-17T09:49:19;30.27;;;18.65;;
74900;SDS011;63461;51.416;6.758;2023-08-17T09:51:44;34.20;;;19.50;;
74900;SDS011;63461;51.416;6.758;2023-08-17T09:54:18;32.70;;;20.80;;
74900;SDS011;63461;51.416;6.758;2023-08-17T09:56:48;33.58;;;20.50;;
74900;SDS011;63461;51.416;6.758;2023-08-17T09:59:15;35.35;;;20.42;;
74900;SDS011;63461;51.416;6.758;2023-08-17T10:01:41;33.97;;;19.90;;
74900;SDS011;63461;51.416;6.758;2023-08-17T10:04:08;36.55;;;20.75;;
74900;SDS011;63461;51.416;6.758;2023-08-17T10:06:35;33.20;;;20.92;;
74900;SDS011;63461;51.416;6.758;2023-08-17T10:09:05;33.80;;;20.10;;
74900;SDS011;63461;51.416;6.758;2023-08-17T10:11:33;33.55;;;20.02;;
74900;SDS011;63461;51.416;6.758;2023-08-17T10:14:04;35.28;;;19.73;;
74900;SDS011;63461;51.416;6.758;2023-08-17T10:16:40;39.28;;;19.88;;
74900;SDS011;63461;51.416;6.758;2023-08-17T10:19:18;33.25;;;20.13;;
74900;SDS011;63461;51.416;6.758;2023-08-17T10:21:56;33.10;;;19.27;;
74900;SDS011;63461;51.416;6.758;2023-08-17T10:24:31;33.55;;;20.45;;
74900;SDS011;63461;51.416;6.758;2023-08-17T10:27:01;33.42;;;21.95;;
74900;SDS011;63461;51.416;6.758;2023-08-17T10:29:28;37.08;;;22.60;;
74900;SDS011;63461;51.416;6.758;2023-08-17T10:31:55;32.60;;;20.00;;
74900;SDS011;63461;51.416;6.758;2023-08-17T10:34:22;29.98;;;19.88;;
74900;SDS011;63461;51.416;6.758;2023-08-17T10:36:48;35.00;;;20.42;;
74900;SDS011;63461;51.416;6.758;2023-08-17T10:41:48;33.75;;;20.52;;
74900;SDS011;63461;51.416;6.758;2023-08-17T10:44:15;31.17;;;19.17;;
74900;SDS011;63461;51.416;6.758;2023-08-17T10:46:43;31.67;;;18.63;;
74900;SDS011;63461;51.416;6.758;2023-08-17T10:49:26;28.23;;;17.73;;
74900;SDS011;63461;51.416;6.758;2023-08-17T10:52:04;35.10;;;20.25;;
74900;SDS011;63461;51.416;6.758;2023-08-17T10:54:38;29.42;;;18.90;;
74900;SDS011;63461;51.416;6.758;2023-08-17T11:02:57;29.33;;;16.63;;
74900;SDS011;63461;51.416;6.758;2023-08-17T11:11:16;31.25;;;18.27;;
74900;SDS011;63461;51.416;6.758;2023-08-17T11:13:44;35.97;;;18.92;;
74900;SDS011;63461;51.416;6.758;2023-08-17T11:16:14;31.08;;;16.30;;
74900;SDS011;63461;51.416;6.758;2023-08-17T11:18:41;30.27;;;17.55;;
74900;SDS011;63461;51.416;6.758;2023-08-17T11:21:07;31.13;;;17.85;;
74900;SDS011;63461;51.416;6.758;2023-08-17T11:23:36;33.65;;;19.50;;
74900;SDS011;63461;51.416;6.758;2023-08-17T11:26:02;41.28;;;22.42;;
74900;SDS011;63461;51.416;6.758;2023-08-17T11:28:29;36.88;;;19.83;;
74900;SDS011;63461;51.416;6.758;2023-08-17T11:31:04;34.08;;;18.83;;
74900;SDS011;63461;51.416;6.758;2023-08-17T11:33:32;33.42;;;18.52;;
74900;SDS011;63461;51.416;6.758;2023-08-17T11:35:59;31.80;;;19.00;;
74900;SDS011;63461;51.416;6.758;2023-08-17T11:38:30;33.50;;;18.88;;
74900;SDS011;63461;51.416;6.758;2023-08-17T11:40:57;29.25;;;19.25;;
74900;SDS011;63461;51.416;6.758;2023-08-17T11:43:24;28.40;;;16.52;;
74900;SDS011;63461;51.416;6.758;2023-08-17T11:45:51;33.40;;;18.25;;
74900;SDS011;63461;51.416;6.758;2023-08-17T11:48:19;29.33;;;17.98;;
74900;SDS011;63461;51.416;6.758;2023-08-17T11:50:45;25.58;;;16.92;;
74900;SDS011;63461;51.416;6.758;2023-08-17T11:53:11;27.55;;;16.58;;
74900;SDS011;63461;51.416;6.758;2023-08-17T11:55:37;27.23;;;17.67;;
74900;SDS011;63461;51.416;6.758;2023-08-17T11:58:03;28.35;;;17.27;;
74900;SDS011;63461;51.416;6.758;2023-08-17T12:00:34;27.15;;;15.73;;
74900;SDS011;63461;51.416;6.758;2023-08-17T12:03:02;27.00;;;15.32;;
74900;SDS011;63461;51.416;6.758;2023-08-17T12:05:30;23.45;;;14.45;;
74900;SDS011;63461;51.416;6.758;2023-08-17T12:07:58;23.45;;;15.43;;
74900;SDS011;63461;51.416;6.758;2023-08-17T12:10:30;25.17;;;15.35;;
74900;SDS011;63461;51.416;6.758;2023-08-17T12:13:00;24.02;;;15.43;;
74900;SDS011;63461;51.416;6.758;2023-08-17T12:15:30;22.98;;;14.50;;
74900;SDS011;63461;51.416;6.758;2023-08-17T12:17:58;24.73;;;16.33;;
74900;SDS011;63461;51.416;6.758;2023-08-17T12:20:25;29.35;;;17.08;;
74900;SDS011;63461;51.416;6.758;2023-08-17T12:22:51;28.10;;;17.45;;
74900;SDS011;63461;51.416;6.758;2023-08-17T12:25:20;28.58;;;16.55;;
74900;SDS011;63461;51.416;6.758;2023-08-17T12:27:47;27.42;;;17.17;;
74900;SDS011;63461;51.416;6.758;2023-08-17T12:30:16;26.58;;;16.77;;
74900;SDS011;63461;51.416;6.758;2023-08-17T12:32:58;27.80;;;17.35;;
74900;SDS011;63461;51.416;6.758;2023-08-17T12:35:24;28.58;;;17.73;;
74900;SDS011;63461;51.416;6.758;2023-08-17T12:37:51;30.58;;;17.25;;
74900;SDS011;63461;51.416;6.758;2023-08-17T12:40:18;27.55;;;17.08;;
74900;SDS011;63461;51.416;6.758;2023-08-17T12:42:44;28.33;;;17.17;;
74900;SDS011;63461;51.416;6.758;2023-08-17T12:45:10;26.42;;;17.40;;
74900;SDS011;63461;51.416;6.758;2023-08-17T12:47:35;30.77;;;17.13;;
74900;SDS011;63461;51.416;6.758;2023-08-17T12:50:02;29.67;;;18.60;;
74900;SDS011;63461;51.416;6.758;2023-08-17T12:52:29;29.88;;;17.73;;
74900;SDS011;63461;51.416;6.758;2023-08-17T12:54:54;30.05;;;17.80;;
74900;SDS011;63461;51.416;6.758;2023-08-17T12:57:20;31.90;;;17.45;;
74900;SDS011;63461;51.416;6.758;2023-08-17T12:59:46;28.38;;;17.70;;
74900;SDS011;63461;51.416;6.758;2023-08-17T13:02:12;33.70;;;19.23;;
74900;SDS011;63461;51.416;6.758;2023-08-17T13:04:38;36.47;;;20.15;;
74900;SDS011;63461;51.416;6.758;2023-08-17T13:07:04;33.17;;;19.25;;
74900;SDS011;63461;51.416;6.758;2023-08-17T13:09:30;34.97;;;19.83;;
74900;SDS011;63461;51.416;6.758;2023-08-17T13:11:56;32.60;;;20.52;;
74900;SDS011;63461;51.416;6.758;2023-08-17T13:14:22;32.83;;;19.52;;
74900;SDS011;63461;51.416;6.758;2023-08-17T13:16:49;32.72;;;19.30;;
74900;SDS011;63461;51.416;6.758;2023-08-17T13:19:15;29.30;;;18.90;;
74900;SDS011;63461;51.416;6.758;2023-08-17T13:21:41;34.35;;;19.13;;
74900;SDS011;63461;51.416;6.758;2023-08-17T13:24:07;29.15;;;18.48;;
74900;SDS011;63461;51.416;6.758;2023-08-17T13:26:34;34.15;;;18.75;;
74900;SDS011;63461;51.416;6.758;2023-08-17T13:28:59;28.73;;;18.00;;
74900;SDS011;63461;51.416;6.758;2023-08-17T13:31:25;33.10;;;19.15;;
74900;SDS011;63461;51.416;6.758;2023-08-17T13:33:51;34.38;;;20.00;;
74900;SDS011;63461;51.416;6.758;2023-08-17T13:36:18;33.38;;;19.73;;
74900;SDS011;63461;51.416;6.758;2023-08-17T13:38:44;36.80;;;20.27;;
74900;SDS011;63461;51.416;6.758;2023-08-17T13:41:11;32.08;;;19.40;;
74900;SDS011;63461;51.416;6.758;2023-08-17T13:43:37;32.80;;;18.92;;
74900;SDS011;63461;51.416;6.758;2023-08-17T13:46:03;32.35;;;19.13;;
74900;SDS011;63461;51.416;6.758;2023-08-17T13:48:29;35.45;;;19.00;;
74900;SDS011;63461;51.416;6.758;2023-08-17T13:50:55;32.22;;;18.67;;
74900;SDS011;63461;51.416;6.758;2023-08-17T13:53:21;32.20;;;18.65;;
74900;SDS011;63461;51.416;6.758;2023-08-17T13:55:47;33.25;;;19.52;;
74900;SDS011;63461;51.416;6.758;2023-08-17T13:58:13;32.80;;;19.52;;
74900;SDS011;63461;51.416;6.758;2023-08-17T14:00:39;37.47;;;19.77;;
74900;SDS011;63461;51.416;6.758;2023-08-17T14:03:05;33.85;;;19.20;;
74900;SDS011;63461;51.416;6.758;2023-08-17T14:05:31;32.25;;;18.30;;
74900;SDS011;63461;51.416;6.758;2023-08-17T14:07:57;37.58;;;19.85;;
74900;SDS011;63461;51.416;6.758;2023-08-17T14:10:23;33.22;;;18.48;;
74900;SDS011;63461;51.416;6.758;2023-08-17T14:12:49;32.63;;;19.20;;
74900;SDS011;63461;51.416;6.758;2023-08-17T14:15:14;29.83;;;18.48;;
74900;SDS011;63461;51.416;6.758;2023-08-17T14:17:47;34.47;;;19.52;;
74900;SDS011;63461;51.416;6.758;2023-08-17T14:20:13;33.70;;;20.05;;
74900;SDS011;63461;51.416;6.758;2023-08-17T14:22:39;40.05;;;19.33;;
74900;SDS011;63461;51.416;6.758;2023-08-17T14:25:05;34.05;;;19.67;;
74900;SDS011;63461;51.416;6.758;2023-08-17T14:27:32;37.67;;;19.77;;
74900;SDS011;63461;51.416;6.758;2023-08-17T14:29:57;31.45;;;18.52;;
74900;SDS011;63461;51.416;6.758;2023-08-17T14:32:26;31.67;;;18.52;;
74900;SDS011;63461;51.416;6.758;2023-08-17T14:34:54;31.02;;;18.27;;
74900;SDS011;63461;51.416;6.758;2023-08-17T14:37:20;35.47;;;16.55;;
74900;SDS011;63461;51.416;6.758;2023-08-17T14:39:46;39.55;;;18.42;;
74900;SDS011;63461;51.416;6.758;2023-08-17T14:42:12;27.27;;;16.38;;
74900;SDS011;63461;51.416;6.758;2023-08-17T14:44:37;30.00;;;15.93;;
74900;SDS011;63461;51.416;6.758;2023-08-17T14:47:03;28.85;;;15.85;;